Am Bremen — H9PI — position and weather

sailwx.info

Track history (hours):
 
Tides and Currents Weather Stations Pressure Air Temp Water Temp Dewpoint Dewpoint Depression Visibility Wind Speed Wind Dir Waves Ship Positions

Am Bremen

Last reported at 2018-Jun-15 23:04 UTC. Time now 2018-Jun-20 03:27 UTC.
Position S 33°46' E 017°49'.

Length 190 m; draft 9.8 m.

Type: Cargo ship. MMSI: 373724000.

Date/timePositionNaut miles runAvg speedWind from/ knotsBaromVisibWave heightAir tempDewpointWater temp
2018-Jun-15 23:04S 33°46' E 017°49'4 9.8
2018-Jun-15 22:40S 33°50' E 017°51'3 9.7
2018-Jun-15 22:23S 33°52' E 017°53'4 9.6
2018-Jun-15 22:00S 33°56' E 017°54'5 9.3
2018-Jun-15 21:30S 34°00' E 017°56'5 9.5
2018-Jun-15 21:00S 34°05' E 017°58'510.0
2018-Jun-15 20:30S 34°09' E 018°00'5 9.8
2018-Jun-15 20:00S 34°14' E 018°03'5 9.9
2018-Jun-15 19:30S 34°18' E 018°05'5 9.8
2018-Jun-15 19:00S 34°23' E 018°07'510.0
2018-Jun-15 18:30S 34°28' E 018°09'710.2
2018-Jun-15 17:49S 34°34' E 018°11'3 9.5
2018-Jun-15 17:27S 34°38' E 018°12'3 7.0
2018-Jun-15 16:59S 34°39' E 018°16'3 6.8
2018-Jun-15 16:29S 34°41' E 018°20'3 6.5
2018-Jun-15 16:00S 34°41' E 018°24'3 6.6
2018-Jun-15 15:28S 34°42' E 018°28'4 6.5
2018-Jun-15 14:48S 34°43' E 018°33'2 6.4
2018-Jun-15 14:29S 34°44' E 018°35'4 6.5
2018-Jun-15 13:56S 34°45' E 018°39'3 6.5
2018-Jun-15 13:29S 34°45' E 018°43'4 6.4
2018-Jun-15 12:52S 34°46' E 018°47'6 6.2
2018-Jun-15 11:51S 34°48' E 018°55'3 5.9
2018-Jun-15 11:20S 34°49' E 018°58'2 5.2
2018-Jun-15 10:54S 34°50' E 019°01'  
2018-Jun-13 03:12S 33°33' E 030°01'611.3
2018-Jun-13 02:41S 33°31' E 030°07'411.3
2018-Jun-13 02:19S 33°29' E 030°12'411.0
2018-Jun-13 01:59S 33°28' E 030°16'511.1
2018-Jun-13 01:31S 33°26' E 030°22'610.9
2018-Jun-13 01:00S 33°24' E 030°28'510.6
2018-Jun-13 00:30S 33°22' E 030°34'510.4
2018-Jun-13 00:00S 33°20' E 030°40'510.6
2018-Jun-12 23:31S 33°18' E 030°46'  
Track history (hours):
 
Tides and Currents Weather Stations Pressure Air Temp Water Temp Dewpoint Dewpoint Depression Visibility Wind Speed Wind Dir Waves Ship Positions

Am Bremen

Last reported at 2018-Jun-15 23:04 UTC. Time now 2018-Jun-20 03:27 UTC.
Position S 33°46' E 017°49'.

Length 190 m; draft 9.8 m.

Type: Cargo ship. MMSI: 373724000.

Date/timePositionNaut miles runAvg speedWind from/ knotsBaromVisibWave heightAir tempDewpointWater temp
2018-Jun-15 23:04S 33°46' E 017°49'4 9.8
2018-Jun-15 22:40S 33°50' E 017°51'3 9.7
2018-Jun-15 22:23S 33°52' E 017°53'4 9.6
2018-Jun-15 22:00S 33°56' E 017°54'5 9.3
2018-Jun-15 21:30S 34°00' E 017°56'5 9.5
2018-Jun-15 21:00S 34°05' E 017°58'510.0
2018-Jun-15 20:30S 34°09' E 018°00'5 9.8
2018-Jun-15 20:00S 34°14' E 018°03'5 9.9
2018-Jun-15 19:30S 34°18' E 018°05'5 9.8
2018-Jun-15 19:00S 34°23' E 018°07'510.0
2018-Jun-15 18:30S 34°28' E 018°09'710.2
2018-Jun-15 17:49S 34°34' E 018°11'3 9.5
2018-Jun-15 17:27S 34°38' E 018°12'3 7.0
2018-Jun-15 16:59S 34°39' E 018°16'3 6.8
2018-Jun-15 16:29S 34°41' E 018°20'3 6.5
2018-Jun-15 16:00S 34°41' E 018°24'3 6.6
2018-Jun-15 15:28S 34°42' E 018°28'4 6.5
2018-Jun-15 14:48S 34°43' E 018°33'2 6.4
2018-Jun-15 14:29S 34°44' E 018°35'4 6.5
2018-Jun-15 13:56S 34°45' E 018°39'3 6.5
2018-Jun-15 13:29S 34°45' E 018°43'4 6.4
2018-Jun-15 12:52S 34°46' E 018°47'6 6.2
2018-Jun-15 11:51S 34°48' E 018°55'3 5.9
2018-Jun-15 11:20S 34°49' E 018°58'2 5.2
2018-Jun-15 10:54S 34°50' E 019°01'  
2018-Jun-13 03:12S 33°33' E 030°01'611.3
2018-Jun-13 02:41S 33°31' E 030°07'411.3
2018-Jun-13 02:19S 33°29' E 030°12'411.0
2018-Jun-13 01:59S 33°28' E 030°16'511.1
2018-Jun-13 01:31S 33°26' E 030°22'610.9
2018-Jun-13 01:00S 33°24' E 030°28'510.6
2018-Jun-13 00:30S 33°22' E 030°34'510.4
2018-Jun-13 00:00S 33°20' E 030°40'510.6
2018-Jun-12 23:31S 33°18' E 030°46'  

Dump ship's entire track history